Time;durP1;ratioP1;P1;durP2;ratioP2;P2;SDS_P1;SDS_P2;PMS_P1;PMS_P2;Temp;Humidity;BMP_temperature;BMP_pressure;BME280_temperature;BME280_humidity;BME280_pressure;Samples;Min_cycle;Max_cycle;Signal;HPM_P1;HPM_P2
2022/11/06 00:02:16;;;;;;;2.60;1.52;;;15.90;73.30;;;;;;10447156;28;20056;-54
2022/11/06 00:07:17;;;;;;;3.05;1.58;;;15.90;72.70;;;;;;10461307;28;20728;-54
2022/11/06 00:12:17;;;;;;;2.45;1.40;;;15.80;72.60;;;;;;10487228;28;20444;-52
2022/11/06 00:17:18;;;;;;;4.30;2.30;;;15.90;72.60;;;;;;10473901;28;20098;-54
2022/11/06 00:22:19;;;;;;;3.42;1.55;;;15.80;72.60;;;;;;10465195;28;20100;-53
2022/11/06 00:27:19;;;;;;;2.55;1.45;;;15.80;72.60;;;;;;10446833;28;20071;-54
2022/11/06 00:32:20;;;;;;;3.50;1.58;;;15.80;72.50;;;;;;10446410;28;20075;-54
2022/11/06 00:37:21;;;;;;;2.88;1.45;;;15.80;72.60;;;;;;10468819;28;20035;-54
2022/11/06 00:42:21;;;;;;;2.33;1.50;;;15.80;72.60;;;;;;10465945;28;20622;-54
2022/11/06 00:47:22;;;;;;;2.78;1.92;;;15.80;72.60;;;;;;10480843;28;20072;-53
2022/11/06 00:52:23;;;;;;;3.28;1.17;;;15.80;72.60;;;;;;10469259;28;20017;-54
2022/11/06 00:57:23;;;;;;;2.13;1.27;;;15.80;72.60;;;;;;10481199;28;20682;-54
2022/11/06 01:02:24;;;;;;;2.25;1.33;;;15.80;72.60;;;;;;10466003;28;20025;-54
2022/11/06 01:07:25;;;;;;;2.15;1.35;;;15.80;72.60;;;;;;10487486;28;20137;-54
2022/11/06 01:12:25;;;;;;;1.73;1.10;;;15.80;72.60;;;;;;10494775;28;20100;-54
2022/11/06 01:17:27;;;;;;;2.15;1.63;;;15.80;72.60;;;;;;10494691;28;20731;-55
2022/11/06 01:22:28;;;;;;;1.90;1.45;;;15.80;72.50;;;;;;10495395;28;20105;-52
2022/11/06 01:27:29;;;;;;;1.73;1.20;;;15.80;72.50;;;;;;10477028;28;20123;-53
2022/11/06 01:32:29;;;;;;;3.60;1.67;;;15.80;72.50;;;;;;10494440;28;20072;-54
2022/11/06 01:37:30;;;;;;;2.08;1.50;;;15.80;72.50;;;;;;10477037;28;20551;-54
2022/11/06 01:42:30;;;;;;;2.50;1.40;;;15.80;72.50;;;;;;10452773;28;20107;-54
2022/11/06 01:47:31;;;;;;;2.22;1.35;;;15.70;72.40;;;;;;10451152;28;20057;-53
2022/11/06 01:52:33;;;;;;;3.17;1.50;;;15.80;72.50;;;;;;10482201;28;20020;-52
2022/11/06 01:57:33;;;;;;;2.05;1.42;;;15.80;72.40;;;;;;10493133;28;20059;-54
2022/11/06 02:02:35;;;;;;;3.08;1.38;;;15.80;72.30;;;;;;10493098;28;20027;-54
2022/11/06 02:07:37;;;;;;;3.78;1.52;;;15.80;72.30;;;;;;10444715;28;20651;-52
2022/11/06 02:12:49;;;;;;;2.97;1.73;;;15.70;72.20;;;;;;10451544;28;20449;-54
2022/11/06 02:18:41;;;;;;;2.60;1.73;;;15.80;72.30;;;;;;10451286;28;20116;-53
2022/11/06 02:24:26;;;;;;;1.63;1.08;;;15.80;72.40;;;;;;10478376;28;20025;-52
2022/11/06 02:29:36;;;;;;;3.08;1.45;;;15.70;72.30;;;;;;10450577;28;20055;-54
2022/11/06 02:34:38;;;;;;;2.67;1.45;;;15.70;72.30;;;;;;10449075;28;20059;-54
2022/11/06 02:39:42;;;;;;;3.33;1.08;;;15.70;72.30;;;;;;10449332;28;20025;-53
2022/11/06 02:44:45;;;;;;;3.42;1.50;;;15.70;72.30;;;;;;10460219;28;20025;-53
2022/11/06 02:49:53;;;;;;;1.65;1.20;;;15.70;72.30;;;;;;10461750;28;20594;-53
2022/11/06 02:55:10;;;;;;;2.42;1.20;;;15.70;72.30;;;;;;10458730;28;20667;-54
2022/11/06 03:00:15;;;;;;;2.17;1.58;;;15.70;72.30;;;;;;10464843;28;20024;-52
2022/11/06 03:05:25;;;;;;;2.20;1.55;;;15.70;72.30;;;;;;10468052;28;20655;-54
2022/11/06 03:10:45;;;;;;;1.88;1.27;;;15.70;72.30;;;;;;10462294;28;20112;-55
2022/11/06 03:16:12;;;;;;;2.28;1.25;;;15.70;72.30;;;;;;10448012;28;20025;-53
2022/11/06 03:21:30;;;;;;;1.92;1.00;;;15.70;72.30;;;;;;10463197;28;20029;-54
2022/11/06 03:26:45;;;;;;;2.22;1.30;;;15.70;72.30;;;;;;10431222;28;20029;-55
2022/11/06 03:32:13;;;;;;;1.98;1.38;;;15.70;72.30;;;;;;10446773;28;20383;-54
2022/11/06 03:37:22;;;;;;;1.98;1.20;;;15.70;72.30;;;;;;10475323;28;20024;-53
2022/11/06 03:42:28;;;;;;;1.88;1.40;;;15.70;72.30;;;;;;10471842;28;20517;-54
2022/11/06 03:47:39;;;;;;;1.98;1.25;;;15.70;72.30;;;;;;10467558;28;20163;-54
2022/11/06 03:52:51;;;;;;;2.00;1.17;;;15.60;72.20;;;;;;10446234;28;20780;-54
2022/11/06 03:58:02;;;;;;;1.85;0.95;;;15.60;72.20;;;;;;10446340;28;20056;-54
2022/11/06 04:03:23;;;;;;;1.88;1.25;;;15.60;72.10;;;;;;10474142;28;20033;-53
2022/11/06 04:13:59;;;;;;;1.67;0.93;;;15.60;72.00;;;;;;10473762;28;20107;-51
2022/11/06 04:19:00;;;;;;;1.17;1.05;;;15.60;72.00;;;;;;10474485;28;20085;-51
2022/11/06 04:30:07;;;;;;;1.88;1.27;;;15.60;72.00;;;;;;10486086;28;20036;-54
2022/11/06 04:35:31;;;;;;;2.03;1.10;;;15.60;72.10;;;;;;10473361;28;20021;-53
2022/11/06 04:41:07;;;;;;;3.30;1.52;;;15.60;72.10;;;;;;10446574;28;20120;-53
2022/11/06 04:46:17;;;;;;;3.35;1.17;;;15.60;72.20;;;;;;10459843;28;20036;-54
2022/11/06 04:51:25;;;;;;;2.08;0.90;;;15.60;72.80;;;;;;10445052;28;20017;-53
2022/11/06 04:56:30;;;;;;;2.33;1.20;;;15.60;72.10;;;;;;10471524;28;20694;-53
2022/11/06 05:01:31;;;;;;;2.35;0.85;;;15.60;72.20;;;;;;10455654;28;20711;-53
2022/11/06 05:06:31;;;;;;;1.65;1.10;;;15.60;72.20;;;;;;10458585;28;20072;-55
2022/11/06 05:11:32;;;;;;;1.42;0.88;;;15.60;72.10;;;;;;10445763;28;20104;-53
2022/11/06 05:16:33;;;;;;;1.52;1.00;;;15.60;72.10;;;;;;10445591;28;20104;-53
2022/11/06 05:26:53;;;;;;;1.50;1.02;;;15.60;72.20;;;;;;10469321;28;20052;-53
2022/11/06 05:31:54;;;;;;;1.58;0.80;;;15.60;72.10;;;;;;10494397;28;20070;-54
2022/11/06 05:36:55;;;;;;;1.77;1.25;;;15.60;72.10;;;;;;10483178;28;20021;-54
2022/11/06 05:41:56;;;;;;;3.20;1.20;;;15.60;72.10;;;;;;10465690;28;20035;-53
2022/11/06 05:46:56;;;;;;;1.50;0.75;;;15.60;72.10;;;;;;10466711;28;20131;-54
2022/11/06 05:51:57;;;;;;;2.65;1.17;;;15.60;72.20;;;;;;10462063;28;20044;-54
2022/11/06 05:56:58;;;;;;;1.77;1.00;;;15.60;72.20;;;;;;10457638;28;20029;-52
2022/11/06 06:01:59;;;;;;;1.75;1.10;;;15.60;72.20;;;;;;10474440;28;20595;-53
2022/11/06 06:06:59;;;;;;;1.50;1.02;;;15.60;72.20;;;;;;10465241;28;20084;-55
2022/11/06 06:12:00;;;;;;;1.80;1.20;;;15.60;72.30;;;;;;10470783;28;20016;-52
2022/11/06 06:17:01;;;;;;;2.65;1.58;;;15.60;72.30;;;;;;10492475;28;20218;-53
2022/11/06 06:22:01;;;;;;;8.27;2.05;;;15.60;72.50;;;;;;10473008;28;20040;-53
2022/11/06 06:27:02;;;;;;;5.57;2.15;;;15.60;73.10;;;;;;10481403;28;20109;-52
2022/11/06 06:32:04;;;;;;;4.68;1.65;;;15.80;74.40;;;;;;10460133;28;20017;-53
2022/11/06 06:37:04;;;;;;;5.30;1.92;;;15.90;73.50;;;;;;10454101;28;20356;-51
2022/11/06 06:42:05;;;;;;;10.15;1.80;;;16.00;73.50;;;;;;10465870;28;20057;-52
2022/11/06 06:47:06;;;;;;;18.50;3.17;;;16.00;73.90;;;;;;10450148;28;20157;-51
2022/11/06 06:52:06;;;;;;;14.57;2.72;;;16.00;73.70;;;;;;10454291;28;20455;-52
2022/11/06 06:57:07;;;;;;;6.45;1.95;;;16.00;73.80;;;;;;10460836;28;20108;-53
2022/11/06 07:02:08;;;;;;;39.75;7.10;;;16.00;73.90;;;;;;10476720;28;20040;-54
2022/11/06 07:07:09;;;;;;;24.20;4.45;;;15.90;73.90;;;;;;10465244;28;20506;-55
2022/11/06 07:12:09;;;;;;;27.17;5.97;;;15.80;74.10;;;;;;10467265;28;20095;-54
2022/11/06 07:17:10;;;;;;;29.27;4.47;;;15.90;73.60;;;;;;10455710;28;20092;-54
2022/11/06 07:22:11;;;;;;;24.23;4.97;;;16.00;73.40;;;;;;10479038;28;20059;-52
2022/11/06 07:27:11;;;;;;;21.10;4.57;;;16.00;73.60;;;;;;10481725;28;20043;-56
2022/11/06 07:32:12;;;;;;;21.77;3.95;;;15.90;73.40;;;;;;10474220;28;20005;-52
2022/11/06 07:37:13;;;;;;;12.50;3.63;;;16.00;73.20;;;;;;10455530;28;20104;-53
2022/11/06 07:42:13;;;;;;;15.40;3.15;;;15.90;73.40;;;;;;10479052;28;20020;-52
2022/11/06 07:47:14;;;;;;;20.60;3.38;;;15.80;73.20;;;;;;10482251;28;20089;-52
2022/11/06 07:52:15;;;;;;;11.50;2.97;;;15.80;73.30;;;;;;10486317;28;20031;-53
2022/11/06 07:57:15;;;;;;;16.17;3.75;;;15.80;73.30;;;;;;10445601;28;20128;-53
2022/11/06 08:02:16;;;;;;;14.95;3.97;;;15.70;73.20;;;;;;10446702;28;20124;-53
2022/11/06 08:07:17;;;;;;;12.65;3.08;;;15.70;73.10;;;;;;10465018;28;20095;-53
2022/11/06 08:12:17;;;;;;;7.07;2.38;;;15.70;73.00;;;;;;10445907;28;20083;-51
2022/11/06 08:17:18;;;;;;;12.18;2.60;;;15.70;73.00;;;;;;10446667;28;20071;-53
2022/11/06 08:22:19;;;;;;;6.70;2.20;;;15.70;73.00;;;;;;10447049;28;20102;-51
2022/11/06 08:27:19;;;;;;;7.78;2.13;;;15.70;72.90;;;;;;10446630;28;20108;-52
2022/11/06 08:32:20;;;;;;;6.15;2.25;;;15.70;73.40;;;;;;10472191;28;20108;-51
2022/11/06 08:37:21;;;;;;;8.30;2.10;;;15.70;72.90;;;;;;10481459;28;20107;-54
2022/11/06 08:42:21;;;;;;;9.65;2.40;;;15.70;72.80;;;;;;10456094;28;20564;-52
2022/11/06 08:47:22;;;;;;;5.03;2.05;;;15.70;72.70;;;;;;10459789;28;20033;-51
2022/11/06 08:52:23;;;;;;;4.60;1.67;;;15.70;72.70;;;;;;10458456;28;20177;-51
2022/11/06 08:57:24;;;;;;;5.25;2.13;;;15.70;72.70;;;;;;10451815;28;20476;-53
2022/11/06 09:02:25;;;;;;;7.90;1.98;;;15.70;72.70;;;;;;10454176;28;20035;-52
2022/11/06 09:07:26;;;;;;;6.75;1.98;;;15.70;72.70;;;;;;10465455;28;20128;-53
2022/11/06 09:12:26;;;;;;;8.55;2.38;;;15.70;72.60;;;;;;10453741;28;20012;-53
2022/11/06 09:17:27;;;;;;;7.50;1.88;;;15.70;72.70;;;;;;10453631;28;20175;-53
2022/11/06 09:22:28;;;;;;;4.40;1.52;;;15.60;72.60;;;;;;10480440;28;20108;-51
2022/11/06 09:27:28;;;;;;;6.90;1.50;;;15.70;72.60;;;;;;10465663;28;20122;-52
2022/11/06 09:32:29;;;;;;;4.90;1.35;;;15.60;72.60;;;;;;10453008;28;20343;-53
2022/11/06 09:37:30;;;;;;;4.72;2.00;;;15.60;72.60;;;;;;10452466;28;20104;-53
2022/11/06 09:42:45;;;;;;;3.88;1.65;;;15.60;72.50;;;;;;10454207;28;20637;-53
2022/11/06 09:48:14;;;;;;;3.25;1.42;;;15.60;72.50;;;;;;10478899;28;20029;-53
2022/11/06 09:53:39;;;;;;;3.97;1.90;;;15.60;72.50;;;;;;10454809;28;20041;-52
2022/11/06 09:58:43;;;;;;;5.90;1.92;;;15.60;72.40;;;;;;10452836;28;20074;-54
2022/11/06 10:03:57;;;;;;;2.83;1.08;;;15.60;72.40;;;;;;10477052;28;20054;-53
2022/11/06 10:09:02;;;;;;;4.75;1.23;;;15.60;72.30;;;;;;10462360;28;20032;-53
2022/11/06 10:14:34;;;;;;;3.92;1.58;;;15.60;72.90;;;;;;10453781;28;20077;-53
2022/11/06 10:19:40;;;;;;;4.80;1.55;;;15.60;72.30;;;;;;10479780;28;20043;-52
2022/11/06 10:25:01;;;;;;;3.70;1.13;;;15.60;72.30;;;;;;10449735;28;20032;-53
2022/11/06 10:30:09;;;;;;;3.60;1.20;;;15.60;72.30;;;;;;10449553;28;20164;-53
2022/11/06 10:35:34;;;;;;;3.80;1.27;;;15.60;72.30;;;;;;10450838;28;20380;-53
2022/11/06 10:40:36;;;;;;;3.80;1.30;;;15.60;72.20;;;;;;10462782;28;20025;-53
2022/11/06 10:45:44;;;;;;;5.75;1.90;;;15.60;72.30;;;;;;10467763;28;20502;-53
2022/11/06 10:51:26;;;;;;;2.83;1.27;;;15.60;72.30;;;;;;10476878;28;20036;-51
2022/11/06 10:56:58;;;;;;;2.20;0.90;;;15.60;72.30;;;;;;10465584;28;20056;-53
2022/11/06 11:02:00;;;;;;;12.02;1.38;;;15.60;72.40;;;;;;10455837;28;20048;-53
2022/11/06 11:07:15;;;;;;;10.30;2.08;;;15.60;72.50;;;;;;10447948;28;20053;-53
2022/11/06 11:12:27;;;;;;;11.73;2.10;;;15.70;72.90;;;;;;10454147;28;20029;-53
2022/11/06 11:17:27;;;;;;;15.15;3.80;;;15.70;73.10;;;;;;10458689;28;20569;-56
2022/11/06 11:22:28;;;;;;;34.47;3.50;;;15.70;73.30;;;;;;10457210;28;20108;-53
2022/11/06 11:27:35;;;;;;;13.32;2.30;;;15.80;73.60;;;;;;10446702;28;20088;-51
2022/11/06 11:32:36;;;;;;;13.00;2.30;;;15.90;73.50;;;;;;10452077;28;20032;-52
2022/11/06 11:37:37;;;;;;;13.10;2.13;;;16.20;74.40;;;;;;10485716;28;20100;-54
2022/11/06 11:42:37;;;;;;;16.88;2.30;;;16.30;74.00;;;;;;10474139;28;20471;-51
2022/11/06 11:47:45;;;;;;;10.23;2.30;;;16.30;73.80;;;;;;10459863;28;20043;-51
2022/11/06 11:52:50;;;;;;;13.65;2.67;;;16.30;73.50;;;;;;10449722;28;20021;-51
2022/11/06 11:57:58;;;;;;;11.60;1.92;;;16.20;74.40;;;;;;10459389;28;20021;-53
2022/11/06 12:03:06;;;;;;;22.08;4.65;;;16.30;74.00;;;;;;10455654;28;20384;-54
2022/11/06 12:08:21;;;;;;;40.13;4.45;;;16.20;73.70;;;;;;10462211;28;20082;-54
2022/11/06 12:13:24;;;;;;;35.53;3.42;;;16.10;74.00;;;;;;10449784;28;20013;-51
2022/11/06 12:18:34;;;;;;;29.23;4.25;;;16.30;73.10;;;;;;10448507;28;20017;-50
2022/11/06 12:23:58;;;;;;;32.35;5.25;;;16.30;73.40;;;;;;10456973;28;20033;-49
2022/11/06 12:29:16;;;;;;;36.10;6.10;;;16.20;74.00;;;;;;10445410;28;20108;-53
2022/11/06 12:34:45;;;;;;;19.75;3.60;;;16.30;73.60;;;;;;10460486;28;20036;-53
2022/11/06 12:40:00;;;;;;;19.52;4.07;;;16.10;73.80;;;;;;10446099;28;20101;-52
2022/11/06 12:45:01;;;;;;;20.98;3.58;;;16.00;73.60;;;;;;10461684;28;20091;-50
2022/11/06 12:50:42;;;;;;;14.45;3.67;;;16.00;73.50;;;;;;10459632;28;20415;-52
2022/11/06 12:56:08;;;;;;;14.40;3.15;;;15.90;73.40;;;;;;10448339;28;20469;-52
2022/11/06 13:01:54;;;;;;;15.48;3.03;;;15.90;73.40;;;;;;10461706;28;20104;-53
2022/11/06 13:07:36;;;;;;;11.15;2.47;;;15.90;73.50;;;;;;10396569;28;20132;-50
2022/11/06 13:13:03;;;;;;;15.77;3.20;;;15.90;73.40;;;;;;10444383;28;20029;-52
2022/11/06 13:18:24;;;;;;;14.15;2.83;;;15.90;73.50;;;;;;10456329;28;20025;-51
2022/11/06 13:23:50;;;;;;;14.82;2.50;;;15.90;73.60;;;;;;10463427;28;20029;-52
2022/11/06 13:29:03;;;;;;;8.82;2.45;;;15.90;73.50;;;;;;10450358;28;20044;-53
2022/11/06 13:34:05;;;;;;;6.53;3.17;;;15.80;73.50;;;;;;10466777;28;20058;-51
2022/11/06 13:39:23;;;;;;;9.55;1.77;;;15.80;73.50;;;;;;10463077;28;20036;-49
2022/11/06 13:44:24;;;;;;;7.20;2.13;;;15.80;73.40;;;;;;10449226;28;20021;-52
2022/11/06 13:50:03;;;;;;;9.55;1.92;;;15.80;73.40;;;;;;10460745;28;20071;-52
2022/11/06 13:55:40;;;;;;;11.00;2.78;;;15.80;73.30;;;;;;10462398;28;20344;-52
2022/11/06 14:01:16;;;;;;;7.57;2.67;;;15.80;73.30;;;;;;10478423;28;20467;-52
2022/11/06 14:06:28;;;;;;;9.82;1.92;;;15.70;73.20;;;;;;10466830;28;20496;-50
2022/11/06 14:11:38;;;;;;;9.27;2.05;;;15.80;73.20;;;;;;10475064;28;20111;-51
2022/11/06 14:16:42;;;;;;;10.40;2.28;;;15.80;73.20;;;;;;10450139;28;20067;-50
2022/11/06 14:21:47;;;;;;;5.90;1.55;;;15.70;73.10;;;;;;10455918;28;20017;-49
2022/11/06 14:26:49;;;;;;;6.60;1.73;;;15.70;73.00;;;;;;10451107;28;20029;-52
2022/11/06 14:32:20;;;;;;;7.47;1.90;;;15.70;73.00;;;;;;10449284;28;20385;-51
2022/11/06 14:37:26;;;;;;;6.55;1.83;;;15.70;73.00;;;;;;10450568;28;20048;-52
2022/11/06 14:42:36;;;;;;;5.70;1.25;;;15.70;73.00;;;;;;10454374;28;20594;-53
2022/11/06 14:47:51;;;;;;;;;;;15.70;72.90;;;;;;10483869;28;20044;-54
2022/11/06 14:53:05;;;;;;;8.23;1.55;;;15.70;72.90;;;;;;10469003;28;19909;-52
2022/11/06 14:58:53;;;;;;;5.50;1.40;;;15.70;72.90;;;;;;10470733;28;20029;-52
2022/11/06 15:04:13;;;;;;;9.35;1.63;;;15.70;73.30;;;;;;10467473;28;20097;-53
2022/11/06 15:09:44;;;;;;;11.05;1.77;;;15.90;73.10;;;;;;10474076;28;20068;-50
2022/11/06 15:14:44;;;;;;;8.27;2.17;;;15.90;73.00;;;;;;10452409;28;20021;-47
2022/11/06 15:19:59;;;;;;;12.55;2.10;;;15.90;73.30;;;;;;10469661;28;20752;-51
2022/11/06 15:25:26;;;;;;;10.82;2.00;;;15.90;73.60;;;;;;10448471;28;20368;-49
2022/11/06 15:30:28;;;;;;;7.65;2.20;;;15.80;73.70;;;;;;10441902;28;20674;-49
2022/11/06 15:35:34;;;;;;;7.32;1.38;;;15.90;73.70;;;;;;10477499;28;20028;-48
2022/11/06 15:40:37;;;;;;;9.98;1.98;;;15.80;72.60;;;;;;10474532;28;20099;-50
2022/11/06 15:45:38;;;;;;;16.13;2.55;;;15.90;73.20;;;;;;10474801;28;20882;-55
2022/11/06 15:50:42;;;;;;;16.35;2.58;;;15.90;73.30;;;;;;10465159;28;20098;-53
2022/11/06 15:56:06;;;;;;;17.70;2.70;;;15.90;73.90;;;;;;10454021;28;20052;-49
2022/11/06 16:01:09;;;;;;;11.10;2.25;;;16.00;73.50;;;;;;10447356;28;21063;-48
2022/11/06 16:06:10;;;;;;;13.73;3.42;;;16.00;73.20;;;;;;10464444;28;20067;-51
2022/11/06 16:11:18;;;;;;;15.18;2.30;;;16.10;73.40;;;;;;10471171;28;20781;-51
2022/11/06 16:16:39;;;;;;;14.30;2.05;;;16.20;73.20;;;;;;10445857;28;20476;-51
2022/11/06 16:21:40;;;;;;;13.05;3.10;;;16.30;73.10;;;;;;10449438;28;20083;-52
2022/11/06 16:26:48;;;;;;;15.35;2.40;;;16.40;73.60;;;;;;10469019;28;20071;-52
2022/11/06 16:32:00;;;;;;;23.65;5.45;;;16.40;74.40;;;;;;10460449;28;20029;-53
2022/11/06 16:37:14;;;;;;;21.20;5.47;;;16.30;74.10;;;;;;10461517;28;20021;-53
2022/11/06 16:42:21;;;;;;;22.77;6.50;;;16.30;74.80;;;;;;10452075;28;20040;-52
2022/11/06 16:47:22;;;;;;;24.25;5.55;;;16.50;75.20;;;;;;10463510;28;20114;-53
2022/11/06 16:52:31;;;;;;;20.33;4.68;;;16.50;74.60;;;;;;10466058;28;20499;-52
2022/11/06 16:57:43;;;;;;;25.40;4.83;;;16.50;74.80;;;;;;10458620;28;20033;-53
2022/11/06 17:03:06;;;;;;;23.38;4.63;;;16.60;74.30;;;;;;10475887;28;20030;-53
2022/11/06 17:08:28;;;;;;;15.18;3.88;;;16.50;73.60;;;;;;10475900;28;20054;-53
2022/11/06 17:13:32;;;;;;;17.65;4.38;;;16.60;73.40;;;;;;10471053;28;20028;-57
2022/11/06 17:18:36;;;;;;;16.63;2.85;;;16.60;73.80;;;;;;10469492;28;20344;-51
2022/11/06 17:23:37;;;;;;;22.77;4.82;;;16.70;74.10;;;;;;10477008;28;20032;-53
2022/11/06 17:28:38;;;;;;;14.50;2.63;;;16.80;74.50;;;;;;10494554;28;20025;-54
2022/11/06 17:33:40;;;;;;;9.88;3.03;;;16.80;74.20;;;;;;10479922;28;20017;-53
2022/11/06 17:38:40;;;;;;;11.90;3.38;;;16.70;74.40;;;;;;10453408;28;20051;-54
2022/11/06 17:43:41;;;;;;;18.40;3.63;;;16.70;74.50;;;;;;10465205;28;20120;-53
2022/11/06 17:48:41;;;;;;;13.15;3.95;;;16.70;74.70;;;;;;10470869;28;20116;-54
2022/11/06 17:53:42;;;;;;;17.75;3.58;;;16.70;74.70;;;;;;10475565;28;20853;-54
2022/11/06 17:58:43;;;;;;;13.52;2.85;;;16.70;74.70;;;;;;10452141;28;20052;-52
2022/11/06 18:03:44;;;;;;;9.80;3.53;;;16.60;75.10;;;;;;10450723;28;20133;-53
2022/11/06 18:08:45;;;;;;;16.48;3.88;;;16.50;75.30;;;;;;10451851;28;20033;-52
2022/11/06 18:13:45;;;;;;;11.35;4.00;;;16.40;75.50;;;;;;10450120;28;20499;-53
2022/11/06 18:18:46;;;;;;;14.57;3.75;;;16.30;75.40;;;;;;10459231;28;20430;-53
2022/11/06 18:23:47;;;;;;;13.60;4.47;;;16.30;75.10;;;;;;10465043;28;20060;-53
2022/11/06 18:28:49;;;;;;;13.13;3.58;;;16.30;75.30;;;;;;10489660;28;20043;-53
2022/11/06 18:33:50;;;;;;;14.68;3.38;;;16.30;75.30;;;;;;10489403;28;20063;-51
2022/11/06 18:38:51;;;;;;;17.33;3.40;;;16.30;75.40;;;;;;10481012;28;20166;-50
2022/11/06 18:43:56;;;;;;;12.13;2.92;;;16.20;75.60;;;;;;10463975;28;20020;-54
2022/11/06 18:48:57;;;;;;;13.88;3.00;;;16.20;75.40;;;;;;10478028;28;20021;-54
2022/11/06 18:54:00;;;;;;;12.70;3.47;;;16.20;75.30;;;;;;10477846;28;20020;-54
2022/11/06 18:59:01;;;;;;;14.32;3.45;;;16.20;75.40;;;;;;10470382;28;20070;-54
2022/11/06 19:04:03;;;;;;;13.35;2.88;;;16.10;75.60;;;;;;10460275;28;20615;-54
2022/11/06 19:09:06;;;;;;;11.05;2.40;;;16.10;75.60;;;;;;10469951;28;20666;-53
2022/11/06 19:14:07;;;;;;;6.15;1.88;;;16.10;75.60;;;;;;10478621;28;20116;-54
2022/11/06 19:19:09;;;;;;;7.55;2.10;;;16.10;75.40;;;;;;10478277;28;20123;-54
2022/11/06 19:24:10;;;;;;;9.75;2.80;;;16.10;75.70;;;;;;10473919;28;20533;-54
2022/11/06 19:29:11;;;;;;;11.18;3.15;;;16.00;75.80;;;;;;10481019;28;20028;-55
2022/11/06 19:34:12;;;;;;;8.85;2.78;;;16.00;75.90;;;;;;10476933;28;20040;-55
2022/11/06 19:39:13;;;;;;;9.40;2.45;;;16.00;75.60;;;;;;10465202;28;20021;-55
2022/11/06 19:44:14;;;;;;;11.48;2.90;;;16.00;75.90;;;;;;10451534;28;20086;-54
2022/11/06 19:49:15;;;;;;;11.02;3.20;;;16.00;75.60;;;;;;10450452;28;20043;-54
2022/11/06 19:54:16;;;;;;;6.65;2.13;;;16.00;75.80;;;;;;10450541;28;20177;-53
2022/11/06 19:59:16;;;;;;;8.32;1.80;;;16.00;75.90;;;;;;10452083;28;20110;-53
2022/11/06 20:04:17;;;;;;;8.60;2.03;;;16.00;76.00;;;;;;10454622;28;20139;-55
2022/11/06 20:09:19;;;;;;;5.63;2.03;;;16.00;75.60;;;;;;10457448;28;20056;-55
2022/11/06 20:14:20;;;;;;;6.25;2.75;;;16.00;75.90;;;;;;10465963;28;20025;-54
2022/11/06 20:19:21;;;;;;;8.88;1.60;;;15.90;75.90;;;;;;10487853;28;20005;-53
2022/11/06 20:24:22;;;;;;;7.53;1.90;;;15.90;75.90;;;;;;10473108;28;20032;-55
2022/11/06 20:29:22;;;;;;;13.07;2.15;;;15.90;75.90;;;;;;10461452;28;20032;-53
2022/11/06 20:34:23;;;;;;;5.90;2.10;;;15.90;75.80;;;;;;10467462;28;20545;-54
2022/11/06 20:39:23;;;;;;;5.32;1.70;;;15.90;75.40;;;;;;10462702;28;20054;-53
2022/11/06 20:44:24;;;;;;;4.38;1.42;;;15.90;75.30;;;;;;10460386;28;20029;-54
2022/11/06 20:49:25;;;;;;;7.40;1.60;;;15.90;75.30;;;;;;10467201;28;20056;-53
2022/11/06 20:54:25;;;;;;;5.35;1.40;;;15.90;75.40;;;;;;10469440;28;20084;-53
2022/11/06 20:59:26;;;;;;;5.28;1.52;;;15.90;75.40;;;;;;10473300;28;20111;-52
2022/11/06 21:04:27;;;;;;;9.13;2.00;;;15.80;75.30;;;;;;10486774;28;20599;-53
2022/11/06 21:09:27;;;;;;;5.75;1.38;;;15.80;75.30;;;;;;10472496;28;20119;-54
2022/11/06 21:14:29;;;;;;;2.95;1.30;;;15.80;75.20;;;;;;10467890;28;20103;-54
2022/11/06 21:19:30;;;;;;;3.67;1.40;;;15.80;75.20;;;;;;10462955;28;20069;-54
2022/11/06 21:24:30;;;;;;;3.53;1.20;;;15.70;75.10;;;;;;10451743;28;20155;-53
2022/11/06 21:29:31;;;;;;;2.83;1.60;;;15.80;75.10;;;;;;10450867;28;20115;-52
2022/11/06 21:34:31;;;;;;;4.25;1.60;;;15.80;75.10;;;;;;10452802;28;20112;-54
2022/11/06 21:39:32;;;;;;;4.40;1.10;;;15.80;75.10;;;;;;10453271;28;20140;-53
2022/11/06 21:44:33;;;;;;;3.22;1.30;;;15.70;75.00;;;;;;10452845;28;20028;-52
2022/11/06 21:49:33;;;;;;;2.90;1.33;;;15.70;75.00;;;;;;10452499;28;20471;-52
2022/11/06 21:59:53;;;;;;;2.87;1.17;;;15.70;74.90;;;;;;10480317;28;20685;-52
2022/11/06 22:04:54;;;;;;;4.05;1.40;;;15.70;74.90;;;;;;10483706;28;20084;-52
2022/11/06 22:09:54;;;;;;;2.97;1.38;;;15.70;74.90;;;;;;10450109;28;20120;-53
2022/11/06 22:14:55;;;;;;;2.78;1.00;;;15.70;74.90;;;;;;10459763;28;20060;-52
2022/11/06 22:19:57;;;;;;;2.63;0.90;;;15.70;74.90;;;;;;10467341;28;20044;-54
2022/11/06 22:24:58;;;;;;;3.60;1.10;;;15.70;75.00;;;;;;10451443;28;20017;-53
2022/11/06 22:29:59;;;;;;;2.65;1.05;;;15.60;74.80;;;;;;10450891;28;20025;-53
2022/11/06 22:35:00;;;;;;;2.55;0.95;;;15.60;74.80;;;;;;10449736;28;20098;-54
2022/11/06 22:40:01;;;;;;;2.40;1.13;;;15.60;74.80;;;;;;10450521;28;20126;-53
2022/11/06 22:45:01;;;;;;;2.50;1.10;;;15.60;74.80;;;;;;10485954;28;20112;-54
2022/11/06 22:50:02;;;;;;;3.35;1.38;;;15.60;74.70;;;;;;10491288;28;20459;-53
2022/11/06 22:55:03;;;;;;;2.83;0.98;;;15.60;74.70;;;;;;10468690;28;20017;-54
2022/11/06 23:00:05;;;;;;;2.33;1.30;;;15.60;74.70;;;;;;10449837;28;20032;-52
2022/11/06 23:05:08;;;;;;;5.25;1.65;;;15.60;74.70;;;;;;10485235;28;20079;-54
2022/11/06 23:10:09;;;;;;;2.90;1.23;;;15.60;74.60;;;;;;10490518;28;20124;-54
2022/11/06 23:15:09;;;;;;;3.28;0.85;;;15.60;74.60;;;;;;10468340;28;20052;-52
2022/11/06 23:20:10;;;;;;;2.72;0.90;;;15.60;74.70;;;;;;10453073;28;20056;-53
2022/11/06 23:25:12;;;;;;;2.83;1.15;;;15.60;74.70;;;;;;10448937;28;20035;-53
2022/11/06 23:30:13;;;;;;;1.75;1.00;;;15.60;74.70;;;;;;10447520;28;20048;-53
2022/11/06 23:35:14;;;;;;;2.97;0.93;;;15.60;74.70;;;;;;10448376;28;20337;-54
2022/11/06 23:40:15;;;;;;;2.63;1.02;;;15.60;74.70;;;;;;10448325;28;20017;-53
2022/11/06 23:50:35;;;;;;;1.35;0.93;;;15.60;74.60;;;;;;10447895;28;20384;-54
2022/11/06 23:55:36;;;;;;;2.15;0.80;;;15.60;74.60;;;;;;10447647;28;20049;-52
